Clawson, Utah
Current Conditions -  °F | °C
As of 3:53 AM on Monday 22 Dec 2014 (Local Time) from KPUC Reporting Station
Overcast Overcast  
Wind Chill: 32°   Ceiling: 7000
Heat Index: 41°   Visibility: 10mi
Dew Point: 28°   Wind: 17mph
Humidity: 60%   Direction: 300°WNW
Pressure: 29.92"   Gusts: 29mph
Location:  39.13°N, 111.1°W
Report Text: KPUC 221053Z AUTO 30015G25KT 10SM SCT055 OVC070 05/M02 A2992 RMK AO2 PK WND 31030/1015 SLP143 T00501022
Loading
Personal Weather Stations






























Interactive Weather Map New forecast layout! Learn more

10-Day Weather Forecast

Advertisements
Track Severe Weather on mobile